New Berlin, Wisconsin
Current Conditions -  °F | °C
As of 3:45 PM on Saturday 25 Oct 2014 (Local Time) from KUES Reporting Station
Clear Clear  
Wind Chill: 64°   Ceiling: Unl
Heat Index: 64°   Visibility: 10mi
Dew Point: 28°   Wind: 18mph
Humidity: 26%   Direction: 280°W
Pressure: 29.9"   Gusts: 28mph
Location:  42.98°N, 88.12°W
Report Text: KUES 252045Z 28016G24KT 10SM SKC 18/M02 A2990
Loading
Personal Weather Stations






























Interactive Weather Map
Tropical Storm Tracking
New forecast layout! Learn more

10-Day Weather Forecast

Advertisements
Track Severe Weather on mobile